Time;durP1;ratioP1;P1;durP2;ratioP2;P2;SDS_P1;SDS_P2;PMS_P1;PMS_P2;Temp;Humidity;BMP_temperature;BMP_pressure;BME280_temperature;BME280_humidity;BME280_pressure;Samples;Min_cycle;Max_cycle;Signal;HPM_P1;HPM_P2
2021/01/20 00:04:25;;;;;;;7.73;4.63;;;;;;;;;;10160613;28;20023;-64
2021/01/20 00:09:22;;;;;;;10.67;5.57;;;;;;;;;;10161099;28;20043;-64
2021/01/20 00:14:19;;;;;;;11.27;5.63;;;;;;;;;;10182880;28;20042;-66
2021/01/20 00:19:17;;;;;;;11.83;5.43;;;;;;;;;;10194432;28;20121;-67
2021/01/20 00:24:14;;;;;;;9.80;5.43;;;;;;;;;;10163777;28;20040;-67
2021/01/20 00:29:12;;;;;;;11.43;6.40;;;;;;;;;;10178666;28;20135;-64
2021/01/20 00:34:11;;;;;;;7.97;5.10;;;;;;;;;;10163401;28;20035;-67
2021/01/20 00:39:08;;;;;;;11.27;5.93;;;;;;;;;;10161043;28;20049;-67
2021/01/20 00:44:06;;;;;;;13.77;7.73;;;;;;;;;;10178802;28;20035;-64
2021/01/20 00:49:03;;;;;;;15.03;8.63;;;;;;;;;;10187192;28;20047;-65
2021/01/20 00:54:01;;;;;;;12.83;7.33;;;;;;;;;;10155431;28;20041;-66
2021/01/20 00:58:58;;;;;;;18.40;10.75;;;;;;;;;;10175112;28;20035;-64
2021/01/20 01:03:56;;;;;;;15.77;9.37;;;;;;;;;;10173601;28;20046;-67
2021/01/20 01:08:54;;;;;;;17.57;10.80;;;;;;;;;;10183165;28;20035;-66
2021/01/20 01:13:51;;;;;;;17.27;8.93;;;;;;;;;;10177733;28;20023;-66
2021/01/20 01:19:07;;;;;;;20.83;11.95;;;;;;;;;;10152804;28;20043;-66
2021/01/20 01:24:05;;;;;;;21.85;10.25;;;;;;;;;;10151328;28;20043;-67
2021/01/20 01:29:02;;;;;;;18.53;10.40;;;;;;;;;;10161547;28;20079;-66
2021/01/20 01:34:10;;;;;;;18.88;9.38;;;;;;;;;;10165343;28;20045;-66
2021/01/20 01:39:07;;;;;;;17.20;8.27;;;;;;;;;;10171055;28;20404;-65
2021/01/20 01:44:12;;;;;;;22.15;9.57;;;;;;;;;;10153341;28;20525;-66
2021/01/20 01:49:18;;;;;;;23.67;9.60;;;;;;;;;;10160026;28;20038;-65
2021/01/20 01:54:16;;;;;;;17.25;9.50;;;;;;;;;;10165849;28;20031;-66
2021/01/20 01:59:14;;;;;;;18.77;8.48;;;;;;;;;;10166302;28;20513;-66
2021/01/20 02:04:14;;;;;;;19.15;9.48;;;;;;;;;;10144484;28;20039;-66
2021/01/20 02:09:19;;;;;;;23.10;10.43;;;;;;;;;;10148908;28;20290;-65
2021/01/20 02:14:29;;;;;;;18.75;10.07;;;;;;;;;;10178371;28;20030;-65
2021/01/20 02:20:01;;;;;;;20.83;9.98;;;;;;;;;;10170341;28;20035;-66
2021/01/20 02:25:11;;;;;;;19.10;10.38;;;;;;;;;;10141993;28;20097;-65
2021/01/20 02:30:23;;;;;;;21.75;9.98;;;;;;;;;;10166654;28;20038;-66
2021/01/20 02:35:24;;;;;;;18.80;10.27;;;;;;;;;;10144776;28;20156;-66
2021/01/20 02:40:22;;;;;;;19.42;10.70;;;;;;;;;;10164280;28;20062;-65
2021/01/20 02:45:38;;;;;;;19.58;10.85;;;;;;;;;;10150141;28;20178;-65
2021/01/20 02:50:36;;;;;;;17.42;9.48;;;;;;;;;;10172700;28;20042;-65
2021/01/20 02:55:33;;;;;;;18.87;10.20;;;;;;;;;;10180782;28;20064;-65
2021/01/20 03:00:50;;;;;;;19.13;10.18;;;;;;;;;;10162774;28;20425;-65
2021/01/20 03:05:48;;;;;;;16.05;8.10;;;;;;;;;;10176367;28;20063;-65
2021/01/20 03:10:45;;;;;;;19.33;9.27;;;;;;;;;;10160866;28;20066;-65
2021/01/20 03:15:44;;;;;;;14.37;9.10;;;;;;;;;;10161771;28;20047;-65
2021/01/20 03:20:41;;;;;;;13.80;8.25;;;;;;;;;;10173661;28;20059;-64
2021/01/20 03:25:38;;;;;;;22.30;10.03;;;;;;;;;;10154554;28;20038;-64
2021/01/20 03:30:36;;;;;;;19.33;9.77;;;;;;;;;;10159552;28;20065;-65
2021/01/20 03:35:34;;;;;;;14.83;7.37;;;;;;;;;;10174691;28;20552;-64
2021/01/20 03:40:31;;;;;;;17.58;9.10;;;;;;;;;;10183454;28;20039;-64
2021/01/20 03:45:29;;;;;;;17.90;9.43;;;;;;;;;;10184447;28;20039;-65
2021/01/20 03:50:26;;;;;;;14.97;7.57;;;;;;;;;;10173934;28;20125;-65
2021/01/20 03:55:23;;;;;;;13.23;7.33;;;;;;;;;;10171424;28;20455;-64
2021/01/20 04:00:21;;;;;;;14.10;8.47;;;;;;;;;;10178767;28;20122;-65
2021/01/20 04:05:18;;;;;;;13.13;8.53;;;;;;;;;;10174306;28;20404;-65
2021/01/20 04:10:16;;;;;;;16.97;8.37;;;;;;;;;;10150237;28;20035;-65
2021/01/20 04:15:13;;;;;;;15.87;8.67;;;;;;;;;;10176180;28;20042;-64
2021/01/20 04:20:11;;;;;;;15.70;7.20;;;;;;;;;;10168021;28;20041;-64
2021/01/20 04:25:11;;;;;;;18.17;6.93;;;;;;;;;;10159739;28;20250;-64
2021/01/20 04:30:08;;;;;;;14.85;7.50;;;;;;;;;;10163246;28;20058;-65
2021/01/20 04:35:06;;;;;;;13.33;7.13;;;;;;;;;;10164810;28;20038;-65
2021/01/20 04:40:04;;;;;;;15.07;7.53;;;;;;;;;;10174463;28;20054;-65
2021/01/20 04:45:02;;;;;;;13.27;6.85;;;;;;;;;;10154731;28;20027;-64
2021/01/20 04:50:00;;;;;;;12.40;5.72;;;;;;;;;;10168908;28;20112;-64
2021/01/20 04:54:58;;;;;;;13.05;7.03;;;;;;;;;;10171075;28;20071;-64
2021/01/20 04:59:56;;;;;;;17.60;7.45;;;;;;;;;;10168094;28;20077;-66
2021/01/20 05:04:53;;;;;;;11.50;5.70;;;;;;;;;;10168483;28;21666;-66
2021/01/20 05:09:50;;;;;;;13.03;5.53;;;;;;;;;;10171391;28;20027;-67
2021/01/20 05:14:48;;;;;;;11.53;4.90;;;;;;;;;;10166862;28;20507;-66
2021/01/20 05:19:45;;;;;;;10.80;6.07;;;;;;;;;;10168756;28;20038;-66
2021/01/20 05:24:43;;;;;;;8.47;5.33;;;;;;;;;;10162896;28;20026;-66
2021/01/20 05:29:54;;;;;;;10.43;5.23;;;;;;;;;;10157315;28;20043;-65
2021/01/20 05:35:02;;;;;;;10.25;5.75;;;;;;;;;;10151021;28;20024;-66
2021/01/20 05:40:07;;;;;;;11.82;5.63;;;;;;;;;;10167775;28;20114;-67
2021/01/20 05:45:05;;;;;;;15.18;8.23;;;;;;;;;;10150445;28;20031;-67
2021/01/20 05:50:08;;;;;;;13.93;8.27;;;;;;;;;;10155486;28;20041;-67
2021/01/20 05:55:09;;;;;;;14.88;8.02;;;;;;;;;;10152017;28;20540;-66
2021/01/20 06:00:14;;;;;;;11.25;7.38;;;;;;;;;;10157202;28;20062;-66
2021/01/20 06:05:12;;;;;;;16.25;8.68;;;;;;;;;;10157421;28;20118;-67
2021/01/20 06:10:09;;;;;;;12.37;7.37;;;;;;;;;;10150617;28;20510;-67
2021/01/20 06:15:07;;;;;;;11.03;7.30;;;;;;;;;;10148821;28;20113;-67
2021/01/20 06:20:05;;;;;;;13.27;7.27;;;;;;;;;;10166038;28;20448;-66
2021/01/20 06:25:04;;;;;;;18.02;7.90;;;;;;;;;;10165922;28;20041;-66
2021/01/20 06:30:07;;;;;;;15.93;8.50;;;;;;;;;;10156296;28;20790;-65
2021/01/20 06:35:05;;;;;;;14.93;8.27;;;;;;;;;;10169175;28;20122;-67
2021/01/20 06:40:22;;;;;;;15.97;7.83;;;;;;;;;;10165853;28;20122;-67
2021/01/20 06:45:23;;;;;;;14.55;8.32;;;;;;;;;;10169067;28;20038;-67
2021/01/20 06:50:21;;;;;;;17.33;8.20;;;;;;;;;;10156772;28;20138;-67
2021/01/20 06:55:34;;;;;;;13.07;7.70;;;;;;;;;;10154436;28;20046;-67
2021/01/20 07:00:32;;;;;;;11.18;7.13;;;;;;;;;;10122420;28;20310;-67
2021/01/20 07:05:39;;;;;;;12.60;8.20;;;;;;;;;;10127040;28;20054;-64
2021/01/20 07:10:55;;;;;;;14.02;7.50;;;;;;;;;;10165099;28;20035;-67
2021/01/20 07:15:53;;;;;;;15.23;7.10;;;;;;;;;;10166513;28;20046;-66
2021/01/20 07:20:51;;;;;;;15.93;8.20;;;;;;;;;;10159841;28;20757;-64
2021/01/20 07:25:50;;;;;;;12.57;7.43;;;;;;;;;;10162642;28;20436;-64
2021/01/20 07:30:47;;;;;;;11.52;8.25;;;;;;;;;;10152741;28;20089;-65
2021/01/20 07:35:45;;;;;;;17.40;7.97;;;;;;;;;;10153817;28;20038;-64
2021/01/20 07:40:44;;;;;;;13.65;8.10;;;;;;;;;;10156497;28;20867;-65
2021/01/20 07:45:42;;;;;;;15.18;8.25;;;;;;;;;;10161814;28;20039;-64
2021/01/20 07:50:48;;;;;;;15.45;7.13;;;;;;;;;;10161516;28;20046;-61
2021/01/20 07:55:46;;;;;;;12.52;7.20;;;;;;;;;;10162512;28;20043;-61
2021/01/20 08:00:45;;;;;;;14.50;7.78;;;;;;;;;;10164636;28;20073;-61
2021/01/20 08:05:43;;;;;;;11.30;7.05;;;;;;;;;;10162457;28;20047;-59
2021/01/20 08:10:41;;;;;;;11.05;7.00;;;;;;;;;;10132062;28;20159;-62
2021/01/20 08:15:40;;;;;;;9.68;5.93;;;;;;;;;;10165281;28;20519;-60
2021/01/20 08:20:37;;;;;;;18.65;6.63;;;;;;;;;;10153971;28;20486;-61
2021/01/20 08:25:35;;;;;;;9.60;6.40;;;;;;;;;;10157288;28;20655;-61
2021/01/20 08:30:33;;;;;;;7.67;4.87;;;;;;;;;;10175933;28;20046;-61
2021/01/20 08:35:35;;;;;;;7.95;5.38;;;;;;;;;;10171679;28;20535;-59
2021/01/20 08:40:32;;;;;;;9.68;5.47;;;;;;;;;;10154442;28;20035;-61
2021/01/20 08:45:32;;;;;;;9.27;5.70;;;;;;;;;;10169493;28;20124;-64
2021/01/20 08:50:30;;;;;;;11.10;5.20;;;;;;;;;;10169208;28;20425;-62
2021/01/20 08:55:34;;;;;;;10.03;4.40;;;;;;;;;;10166091;28;20034;-62
2021/01/20 09:00:41;;;;;;;8.02;4.60;;;;;;;;;;10172964;28;20046;-61
2021/01/20 09:05:39;;;;;;;13.35;4.88;;;;;;;;;;10173536;28;20079;-62
2021/01/20 09:10:37;;;;;;;6.17;3.97;;;;;;;;;;10173582;28;20169;-62
2021/01/20 09:15:34;;;;;;;7.77;3.80;;;;;;;;;;10179553;28;20034;-65
2021/01/20 09:20:33;;;;;;;8.17;4.70;;;;;;;;;;10171113;28;20515;-64
2021/01/20 09:25:30;;;;;;;10.18;5.03;;;;;;;;;;10159452;28;20035;-61
2021/01/20 09:30:28;;;;;;;9.13;4.37;;;;;;;;;;10150808;28;20055;-62
2021/01/20 09:35:26;;;;;;;6.47;4.50;;;;;;;;;;10174181;28;20037;-63
2021/01/20 09:40:24;;;;;;;9.37;4.63;;;;;;;;;;10166974;28;20034;-64
2021/01/20 09:45:29;;;;;;;11.18;5.32;;;;;;;;;;10158171;28;20462;-64
2021/01/20 09:50:29;;;;;;;7.00;4.20;;;;;;;;;;10171651;28;20042;-64
2021/01/20 09:55:26;;;;;;;5.10;3.35;;;;;;;;;;10147049;28;20035;-62
2021/01/20 10:00:24;;;;;;;7.30;4.00;;;;;;;;;;10149467;28;20420;-64
2021/01/20 10:05:21;;;;;;;6.17;3.97;;;;;;;;;;10170939;28;20047;-62
2021/01/20 10:10:18;;;;;;;6.80;4.20;;;;;;;;;;10157922;28;20113;-62
2021/01/20 10:15:16;;;;;;;6.87;4.30;;;;;;;;;;10155551;28;20579;-63
2021/01/20 10:20:13;;;;;;;6.73;3.77;;;;;;;;;;10169111;28;20080;-62
2021/01/20 10:25:11;;;;;;;6.10;4.03;;;;;;;;;;10162960;28;20038;-64
2021/01/20 10:30:09;;;;;;;6.60;4.20;;;;;;;;;;10164716;28;20038;-63
2021/01/20 10:35:08;;;;;;;6.23;3.40;;;;;;;;;;10149525;28;20038;-64
2021/01/20 10:40:06;;;;;;;5.10;3.63;;;;;;;;;;10155764;28;20698;-62
2021/01/20 10:45:04;;;;;;;;;;;;;;;;;;10146617;28;21397;-62
2021/01/20 10:50:03;;;;;;;5.53;3.78;;;;;;;;;;10151835;28;19918;-61
2021/01/20 10:55:02;;;;;;;6.05;4.10;;;;;;;;;;10154622;28;20043;-65
2021/01/20 11:00:00;;;;;;;4.85;3.40;;;;;;;;;;10125771;28;20042;-63
2021/01/20 11:04:57;;;;;;;5.30;3.37;;;;;;;;;;10146690;28;20026;-61
2021/01/20 11:09:56;;;;;;;6.37;3.93;;;;;;;;;;10156323;28;20027;-62
2021/01/20 11:14:54;;;;;;;4.32;3.10;;;;;;;;;;10144943;28;20106;-61
2021/01/20 11:19:51;;;;;;;5.90;3.10;;;;;;;;;;10161696;28;20556;-63
2021/01/20 11:24:58;;;;;;;3.07;2.60;;;;;;;;;;10148733;28;20027;-60
2021/01/20 11:29:55;;;;;;;5.53;3.20;;;;;;;;;;10156761;28;20023;-63
2021/01/20 11:34:52;;;;;;;5.83;2.70;;;;;;;;;;10174044;28;20030;-61
2021/01/20 11:39:50;;;;;;;4.93;2.77;;;;;;;;;;10172771;28;20031;-61
2021/01/20 11:44:47;;;;;;;5.80;3.27;;;;;;;;;;10138572;28;20059;-59
2021/01/20 11:49:45;;;;;;;3.97;2.20;;;;;;;;;;10140851;28;20034;-61
2021/01/20 11:54:42;;;;;;;3.63;2.27;;;;;;;;;;10166084;28;20026;-63
2021/01/20 11:59:40;;;;;;;3.53;2.73;;;;;;;;;;10161017;28;20487;-62
2021/01/20 12:04:37;;;;;;;2.97;1.80;;;;;;;;;;10166891;28;20022;-62
2021/01/20 12:09:34;;;;;;;3.53;2.33;;;;;;;;;;10172290;28;20776;-61
2021/01/20 12:14:37;;;;;;;3.37;2.13;;;;;;;;;;10173945;28;20035;-63
2021/01/20 12:19:34;;;;;;;2.15;1.63;;;;;;;;;;10168240;28;20450;-62
2021/01/20 12:24:35;;;;;;;3.90;2.53;;;;;;;;;;10168812;28;20057;-62
2021/01/20 12:29:32;;;;;;;3.78;1.90;;;;;;;;;;10154807;28;20038;-65
2021/01/20 12:34:30;;;;;;;3.27;1.80;;;;;;;;;;10167094;28;20053;-60
2021/01/20 12:39:27;;;;;;;4.30;2.63;;;;;;;;;;10168384;28;20501;-60
2021/01/20 12:44:24;;;;;;;3.90;2.23;;;;;;;;;;10170264;28;20066;-62
2021/01/20 12:49:22;;;;;;;4.40;1.97;;;;;;;;;;10175391;28;20049;-64
2021/01/20 12:54:19;;;;;;;3.77;2.37;;;;;;;;;;10169704;28;20494;-63
2021/01/20 12:59:17;;;;;;;2.10;1.90;;;;;;;;;;10168915;28;20039;-63
2021/01/20 13:04:14;;;;;;;2.87;2.10;;;;;;;;;;10152484;28;20068;-62
2021/01/20 13:09:12;;;;;;;2.37;1.60;;;;;;;;;;10179941;28;20405;-61
2021/01/20 13:14:09;;;;;;;1.57;1.20;;;;;;;;;;10169670;28;20031;-59
2021/01/20 13:19:07;;;;;;;4.13;1.57;;;;;;;;;;10163431;28;20032;-62
2021/01/20 13:24:04;;;;;;;2.67;1.40;;;;;;;;;;10161772;28;20034;-62
2021/01/20 13:29:02;;;;;;;3.87;1.90;;;;;;;;;;10148995;28;20042;-61
2021/01/20 13:33:59;;;;;;;2.83;1.80;;;;;;;;;;10165928;28;20390;-61
2021/01/20 13:38:56;;;;;;;2.30;1.63;;;;;;;;;;10169570;28;20125;-62
2021/01/20 13:43:54;;;;;;;3.20;1.70;;;;;;;;;;10154966;28;20031;-63
2021/01/20 13:48:51;;;;;;;4.60;2.13;;;;;;;;;;10162207;28;20035;-62
2021/01/20 13:53:48;;;;;;;5.23;1.63;;;;;;;;;;10171650;28;20046;-63
2021/01/20 13:58:54;;;;;;;3.43;1.53;;;;;;;;;;10157277;28;20039;-62
2021/01/20 14:03:52;;;;;;;3.13;1.90;;;;;;;;;;10172535;28;20475;-62
2021/01/20 14:08:49;;;;;;;2.93;1.67;;;;;;;;;;10163641;28;20041;-62
2021/01/20 14:13:46;;;;;;;2.30;1.73;;;;;;;;;;10162156;28;20542;-62
2021/01/20 14:18:44;;;;;;;3.03;2.13;;;;;;;;;;10159892;28;20035;-63
2021/01/20 14:23:41;;;;;;;4.23;1.93;;;;;;;;;;10166827;28;20955;-61
2021/01/20 14:28:39;;;;;;;4.97;1.93;;;;;;;;;;10161922;28;20461;-65
2021/01/20 14:33:36;;;;;;;2.73;1.97;;;;;;;;;;10167967;28;20547;-61
2021/01/20 14:38:34;;;;;;;5.10;1.87;;;;;;;;;;10160693;28;20038;-60
2021/01/20 14:43:31;;;;;;;3.00;1.80;;;;;;;;;;10159716;28;20035;-62
2021/01/20 14:48:28;;;;;;;2.00;1.07;;;;;;;;;;10164443;28;20047;-63
2021/01/20 14:53:26;;;;;;;1.37;1.20;;;;;;;;;;10160634;28;20039;-62
2021/01/20 14:58:23;;;;;;;3.10;1.60;;;;;;;;;;10139624;28;20034;-62
2021/01/20 15:03:21;;;;;;;4.40;2.10;;;;;;;;;;10164198;28;20109;-61
2021/01/20 15:08:18;;;;;;;2.63;1.27;;;;;;;;;;10146143;28;20067;-60
2021/01/20 15:13:15;;;;;;;2.30;1.83;;;;;;;;;;10151292;28;20561;-62
2021/01/20 15:18:13;;;;;;;4.00;1.63;;;;;;;;;;10153422;28;20047;-62
2021/01/20 15:23:10;;;;;;;4.57;2.20;;;;;;;;;;10155494;28;20701;-59
2021/01/20 15:28:07;;;;;;;2.77;1.57;;;;;;;;;;10171826;28;20034;-61
2021/01/20 15:33:05;;;;;;;3.77;1.87;;;;;;;;;;10178884;28;20035;-60
2021/01/20 15:38:02;;;;;;;4.33;1.97;;;;;;;;;;10176501;28;20579;-63
2021/01/20 15:43:01;;;;;;;3.17;2.50;;;;;;;;;;10161774;28;20027;-64
2021/01/20 15:47:59;;;;;;;4.68;2.15;;;;;;;;;;10195745;28;20387;-61
2021/01/20 15:52:56;;;;;;;4.67;1.73;;;;;;;;;;10155300;28;20027;-59
2021/01/20 15:57:54;;;;;;;3.50;1.90;;;;;;;;;;10156168;28;20126;-59
2021/01/20 16:02:51;;;;;;;4.10;1.73;;;;;;;;;;10165017;28;20046;-59
2021/01/20 16:07:49;;;;;;;3.30;1.90;;;;;;;;;;10159965;28;20069;-60
2021/01/20 16:12:46;;;;;;;3.77;1.83;;;;;;;;;;10174979;28;20117;-60
2021/01/20 16:17:44;;;;;;;2.87;1.60;;;;;;;;;;10165844;28;20066;-60
2021/01/20 16:22:42;;;;;;;4.50;2.20;;;;;;;;;;10172930;28;20521;-61
2021/01/20 16:27:39;;;;;;;4.27;1.70;;;;;;;;;;10175848;28;20050;-62
2021/01/20 16:32:37;;;;;;;9.23;2.97;;;;;;;;;;10159438;28;20030;-62
2021/01/20 16:37:35;;;;;;;7.75;3.28;;;;;;;;;;10155820;28;20240;-63
2021/01/20 16:42:32;;;;;;;7.03;3.63;;;;;;;;;;10153712;28;20038;-64
2021/01/20 16:47:30;;;;;;;10.37;4.27;;;;;;;;;;10171987;28;20560;-63
2021/01/20 16:52:28;;;;;;;5.30;2.90;;;;;;;;;;10175228;28;20126;-60
2021/01/20 16:57:25;;;;;;;10.13;3.20;;;;;;;;;;10168937;28;20174;-59
2021/01/20 17:02:23;;;;;;;6.63;2.70;;;;;;;;;;10169272;28;20174;-61
2021/01/20 17:07:20;;;;;;;6.03;3.17;;;;;;;;;;10173122;28;20034;-60
2021/01/20 17:12:18;;;;;;;7.70;2.93;;;;;;;;;;10166802;28;20100;-62
2021/01/20 17:17:15;;;;;;;7.07;3.63;;;;;;;;;;10190030;23;20035;-66
2021/01/20 17:22:13;;;;;;;10.77;3.60;;;;;;;;;;10165220;28;20035;-65
2021/01/20 17:27:10;;;;;;;5.53;3.43;;;;;;;;;;10161763;28;20042;-62
2021/01/20 17:32:07;;;;;;;6.97;3.30;;;;;;;;;;10146590;28;20054;-64
2021/01/20 17:37:05;;;;;;;10.67;3.83;;;;;;;;;;10166575;28;20039;-64
2021/01/20 17:42:02;;;;;;;8.00;3.50;;;;;;;;;;10142527;28;20516;-64
2021/01/20 17:47:00;;;;;;;4.50;2.40;;;;;;;;;;10142423;28;20066;-62
2021/01/20 17:51:57;;;;;;;3.70;1.90;;;;;;;;;;10163307;28;20078;-64
2021/01/20 17:56:55;;;;;;;5.43;2.47;;;;;;;;;;10151010;28;20662;-64
2021/01/20 18:01:52;;;;;;;6.23;3.37;;;;;;;;;;10138721;28;20043;-64
2021/01/20 18:06:50;;;;;;;5.40;3.27;;;;;;;;;;10158038;28;20050;-64
2021/01/20 18:11:47;;;;;;;7.57;3.70;;;;;;;;;;10156841;28;20031;-64
2021/01/20 18:16:45;;;;;;;11.10;3.30;;;;;;;;;;10154032;28;20110;-64
2021/01/20 18:21:42;;;;;;;6.03;3.27;;;;;;;;;;10147860;28;20030;-64
2021/01/20 18:26:40;;;;;;;5.80;3.60;;;;;;;;;;10172387;28;20081;-64
2021/01/20 18:31:37;;;;;;;5.63;3.60;;;;;;;;;;10157134;28;20126;-65
2021/01/20 18:36:34;;;;;;;4.17;2.63;;;;;;;;;;10158608;28;20043;-64
2021/01/20 18:41:32;;;;;;;4.43;2.73;;;;;;;;;;10145578;28;20741;-62
2021/01/20 18:46:30;;;;;;;3.10;2.33;;;;;;;;;;10157611;28;20372;-64
2021/01/20 18:51:28;;;;;;;;;;;;;;;;;;10158811;28;20106;-63
2021/01/20 18:56:25;;;;;;;5.60;3.00;;;;;;;;;;10153546;28;19968;-63
2021/01/20 19:01:23;;;;;;;8.70;3.10;;;;;;;;;;10144676;28;20061;-63
2021/01/20 19:06:20;;;;;;;5.40;2.60;;;;;;;;;;10140132;28;20122;-64
2021/01/20 19:11:18;;;;;;;5.23;2.53;;;;;;;;;;10156352;28;20031;-64
2021/01/20 19:16:15;;;;;;;5.97;2.73;;;;;;;;;;10141436;28;20023;-64
2021/01/20 19:21:13;;;;;;;4.33;3.33;;;;;;;;;;10148942;28;20022;-64
2021/01/20 19:26:10;;;;;;;3.33;2.00;;;;;;;;;;10157446;28;20230;-64
2021/01/20 19:31:07;;;;;;;3.37;2.20;;;;;;;;;;10128944;28;20039;-65
2021/01/20 19:36:06;;;;;;;6.73;2.40;;;;;;;;;;10173003;28;20030;-64
2021/01/20 19:41:03;;;;;;;5.75;3.22;;;;;;;;;;10160998;28;20031;-64
2021/01/20 19:46:00;;;;;;;4.73;3.10;;;;;;;;;;10155700;28;20369;-64
2021/01/20 19:50:58;;;;;;;4.67;2.23;;;;;;;;;;10147800;28;20046;-64
2021/01/20 19:55:55;;;;;;;6.77;2.27;;;;;;;;;;10154351;28;20027;-64
2021/01/20 20:00:53;;;;;;;4.77;3.17;;;;;;;;;;10159447;28;20121;-64
2021/01/20 20:05:51;;;;;;;3.80;2.97;;;;;;;;;;10146278;28;20447;-64
2021/01/20 20:10:48;;;;;;;7.93;3.72;;;;;;;;;;10155167;28;20161;-64
2021/01/20 20:15:46;;;;;;;7.77;3.23;;;;;;;;;;10142957;28;20536;-64
2021/01/20 20:20:43;;;;;;;7.03;3.77;;;;;;;;;;10143691;28;20047;-64
2021/01/20 20:25:41;;;;;;;7.17;3.40;;;;;;;;;;10148154;28;20051;-65
2021/01/20 20:30:38;;;;;;;9.00;3.13;;;;;;;;;;10156727;28;20037;-64
2021/01/20 20:35:36;;;;;;;4.37;2.53;;;;;;;;;;10158850;28;20561;-64
2021/01/20 20:40:34;;;;;;;7.67;2.50;;;;;;;;;;10146870;28;20552;-64
2021/01/20 20:45:31;;;;;;;4.67;2.60;;;;;;;;;;10153379;28;20039;-64
2021/01/20 20:50:28;;;;;;;7.83;3.27;;;;;;;;;;10157152;28;20038;-64
2021/01/20 20:55:26;;;;;;;3.47;2.67;;;;;;;;;;10145560;28;20031;-64
2021/01/20 21:00:24;;;;;;;3.50;2.70;;;;;;;;;;10150939;28;20038;-64
2021/01/20 21:05:21;;;;;;;4.85;2.55;;;;;;;;;;10153741;28;20133;-64
2021/01/20 21:10:19;;;;;;;3.47;2.20;;;;;;;;;;10157111;28;20425;-64
2021/01/20 21:15:16;;;;;;;4.43;2.23;;;;;;;;;;10153512;28;20082;-64
2021/01/20 21:20:14;;;;;;;3.07;2.23;;;;;;;;;;10155538;28;20082;-64
2021/01/20 21:25:11;;;;;;;5.63;3.10;;;;;;;;;;10166241;28;20035;-64
2021/01/20 21:30:09;;;;;;;4.37;2.83;;;;;;;;;;10139534;28;20034;-64
2021/01/20 21:35:07;;;;;;;3.97;1.77;;;;;;;;;;10158532;28;20806;-64
2021/01/20 21:40:05;;;;;;;5.75;2.25;;;;;;;;;;10157275;28;20062;-64
2021/01/20 21:45:02;;;;;;;2.77;2.20;;;;;;;;;;10153027;28;20040;-64
2021/01/20 21:50:00;;;;;;;3.95;2.20;;;;;;;;;;10145913;28;20043;-64
2021/01/20 21:54:58;;;;;;;8.37;3.17;;;;;;;;;;10163376;28;20094;-64
2021/01/20 21:59:55;;;;;;;4.23;2.33;;;;;;;;;;10156742;28;20363;-64
2021/01/20 22:04:53;;;;;;;4.27;2.43;;;;;;;;;;10147185;28;20627;-64
2021/01/20 22:09:50;;;;;;;8.53;2.33;;;;;;;;;;10149551;28;20376;-64
2021/01/20 22:14:48;;;;;;;5.53;1.97;;;;;;;;;;10153590;28;20129;-64
2021/01/20 22:19:45;;;;;;;2.83;1.70;;;;;;;;;;10137011;28;20466;-64
2021/01/20 22:24:42;;;;;;;5.43;2.33;;;;;;;;;;10162488;28;20046;-64
2021/01/20 22:29:40;;;;;;;3.13;1.80;;;;;;;;;;10149882;28;20038;-64
2021/01/20 22:34:37;;;;;;;6.67;1.80;;;;;;;;;;10158787;28;20031;-64
2021/01/20 22:39:35;;;;;;;3.47;1.93;;;;;;;;;;10154817;28;20044;-64
2021/01/20 22:44:32;;;;;;;5.23;3.67;;;;;;;;;;10155097;28;20035;-64
2021/01/20 22:49:30;;;;;;;4.17;2.40;;;;;;;;;;10150460;28;20510;-64
2021/01/20 22:54:27;;;;;;;4.83;2.07;;;;;;;;;;10151141;28;20294;-65
2021/01/20 22:59:25;;;;;;;2.77;2.00;;;;;;;;;;10163326;28;20062;-64
2021/01/20 23:04:23;;;;;;;2.60;1.80;;;;;;;;;;10169455;28;20134;-64
2021/01/20 23:09:21;;;;;;;2.70;2.20;;;;;;;;;;10154018;28;20050;-64
2021/01/20 23:14:18;;;;;;;5.75;2.53;;;;;;;;;;10151978;28;20045;-64
2021/01/20 23:19:16;;;;;;;5.27;2.73;;;;;;;;;;10158817;28;20148;-64
2021/01/20 23:24:13;;;;;;;1.70;1.60;;;;;;;;;;10151205;28;20502;-64
2021/01/20 23:29:11;;;;;;;4.50;2.57;;;;;;;;;;10150988;28;20039;-64
2021/01/20 23:34:08;;;;;;;3.60;1.70;;;;;;;;;;10145284;28;20035;-64
2021/01/20 23:39:06;;;;;;;4.97;2.03;;;;;;;;;;10148502;28;20043;-64
2021/01/20 23:44:04;;;;;;;5.65;1.67;;;;;;;;;;10145729;28;20292;-64
2021/01/20 23:49:01;;;;;;;1.77;1.47;;;;;;;;;;10154344;28;20109;-64
2021/01/20 23:53:58;;;;;;;3.07;2.40;;;;;;;;;;10149755;28;20089;-64
2021/01/20 23:58:56;;;;;;;2.33;1.23;;;;;;;;;;10165152;28;20122;-64
